Wetterdaten: Woche 13.06.16 - 19.06.16 (KW24)
Datum Zeit Temp. Aussen Temp. o. S. +5cm Feuchte Auss BlattFeu 1 Luftdruck Regen Sonnenschein Regendauer Solar Windben Empfang
13.06.2016 00:00 15,5 C 14,9 C 14,2 C 97 % 15 lf 1004,8 hPa 0,0 l/m 0,00 h 0,00 h 5 W/m 6,4 km/h (2 Bft) 95,16 %
13.06.2016 01:00 15,1 C 14,7 C 13,9 C 97 % 15 lf 1004,3 hPa 0,0 l/m 0,00 h 0,33 h 4 W/m 6,1 km/h (2 Bft) 96,58 %
13.06.2016 02:00 15,3 C 15,0 C 14,0 C 98 % 15 lf 1003,7 hPa 0,0 l/m 0,00 h 0,40 h 5 W/m 9,0 km/h (2 Bft) 96,51 %
13.06.2016 03:00 15,4 C 15,0 C 14,3 C 98 % 15 lf 1003,1 hPa 0,0 l/m 0,00 h 0,00 h 5 W/m 8,7 km/h (2 Bft) 97,01 %
13.06.2016 04:00 15,4 C 15,0 C 14,4 C 98 % 15 lf 1002,6 hPa 0,0 l/m 0,00 h 0,00 h 5 W/m 6,4 km/h (2 Bft) 94,73 %
13.06.2016 05:00 15,5 C 15,0 C 14,4 C 98 % 15 lf 1002,2 hPa 0,0 l/m 0,00 h 0,00 h 9 W/m 8,7 km/h (2 Bft) 97,65 %
13.06.2016 06:00 15,2 C 15,0 C 14,3 C 98 % 14 lf 1002,0 hPa 0,0 l/m 0,00 h 0,00 h 32 W/m 12,4 km/h (3 Bft) 96,09 %
13.06.2016 07:00 15,1 C 15,2 C 14,5 C 98 % 4 lf 1001,8 hPa 0,0 l/m 0,00 h 0,00 h 47 W/m 11,5 km/h (2 Bft) 96,58 %
13.06.2016 08:00 15,4 C 15,5 C 14,8 C 98 % 12 lf 1001,6 hPa 0,8 l/m 0,00 h 0,47 h 78 W/m 10,2 km/h (2 Bft) 95,02 %
13.06.2016 09:00 15,8 C 16,5 C 16,0 C 98 % 14 lf 1001,3 hPa 0,0 l/m 0,13 h 0,00 h 180 W/m 11,7 km/h (2 Bft) 97,00 %
13.06.2016 10:00 16,5 C 16,7 C 16,3 C 97 % 11 lf 1001,1 hPa 0,2 l/m 0,10 h 0,30 h 208 W/m 15,6 km/h (3 Bft) 95,73 %
13.06.2016 11:00 16,1 C 16,4 C 15,5 C 94 % 0 lf 1001,0 hPa 0,0 l/m 0,07 h 0,13 h 204 W/m 16,4 km/h (3 Bft) 96,30 %
13.06.2016 12:00 17,8 C 24,6 C 22,1 C 88 % 0 lf 1000,7 hPa 0,0 l/m 0,63 h 0,00 h 581 W/m 16,0 km/h (3 Bft) 94,48 %
13.06.2016 13:00 20,3 C 27,4 C 23,5 C 78 % 0 lf 1000,0 hPa 0,0 l/m 0,87 h 0,00 h 925 W/m 16,9 km/h (3 Bft) 96,72 %
13.06.2016 14:00 21,4 C 24,7 C 24,1 C 74 % 0 lf 999,4 hPa 0,0 l/m 0,50 h 0,03 h 526 W/m 18,9 km/h (3 Bft) 96,33 %
13.06.2016 15:00 20,0 C 20,2 C 18,9 C 76 % 6 lf 999,6 hPa 0,2 l/m 0,00 h 0,37 h 162 W/m 19,8 km/h (3 Bft) 95,52 %
13.06.2016 16:00 17,1 C 16,4 C 15,4 C 86 % 15 lf 1000,0 hPa 0,4 l/m 0,00 h 0,60 h 161 W/m 11,1 km/h (2 Bft) 95,15 %
13.06.2016 17:00 16,8 C 17,2 C 15,8 C 89 % 8 lf 1000,1 hPa 0,6 l/m 0,17 h 0,47 h 166 W/m 15,5 km/h (3 Bft) 98,87 %
13.06.2016 18:00 16,3 C 16,0 C 15,5 C 92 % 15 lf 1000,1 hPa 0,0 l/m 0,00 h 0,43 h 130 W/m 15,7 km/h (3 Bft) 93,24 %
13.06.2016 19:00 16,1 C 15,6 C 14,8 C 94 % 15 lf 1000,2 hPa 0,2 l/m 0,00 h 0,57 h 43 W/m 14,6 km/h (3 Bft) 97,08 %
13.06.2016 20:00 15,8 C 15,3 C 14,4 C 94 % 9 lf 1000,3 hPa 0,0 l/m 0,00 h 0,03 h 25 W/m 10,9 km/h (2 Bft) 97,50 %
13.06.2016 21:00 15,7 C 15,0 C 14,2 C 95 % 2 lf 1000,4 hPa 0,0 l/m 0,00 h 0,03 h 12 W/m 10,4 km/h (2 Bft) 95,66 %
13.06.2016 22:00 15,3 C 15,0 C 13,9 C 95 % 1 lf 1000,5 hPa 0,0 l/m 0,00 h 0,17 h 5 W/m 8,8 km/h (2 Bft) 94,33 %
13.06.2016 23:00 15,2 C 15,0 C 13,9 C 96 % 1 lf 1000,6 hPa 0,0 l/m 0,00 h 0,07 h 5 W/m 9,0 km/h (2 Bft) 98,36 %
14.06.2016 00:00 14,9 C 14,8 C 13,6 C 96 % 1 lf 1000,4 hPa 0,0 l/m 0,00 h 0,07 h 5 W/m 10,1 km/h (2 Bft) 95,34 %
14.06.2016 01:00 14,7 C 14,4 C 13,3 C 96 % 1 lf 1000,3 hPa 0,0 l/m 0,00 h 0,03 h 5 W/m 8,9 km/h (2 Bft) 96,30 %
14.06.2016 02:00 14,5 C 13,9 C 13,2 C 96 % 13 lf 1000,1 hPa 1,0 l/m 0,00 h 0,77 h 5 W/m 11,6 km/h (2 Bft) 95,37 %
14.06.2016 03:00 14,2 C 13,5 C 12,8 C 96 % 15 lf 999,9 hPa 0,2 l/m 0,00 h 0,40 h 5 W/m 11,8 km/h (2 Bft) 96,30 %
14.06.2016 04:00 13,9 C 13,3 C 12,8 C 97 % 15 lf 999,6 hPa 0,0 l/m 0,00 h 0,07 h 5 W/m 7,6 km/h (2 Bft) 96,78 %
14.06.2016 05:00 13,9 C 13,5 C 12,8 C 97 % 15 lf 999,3 hPa 0,0 l/m 0,00 h 0,27 h 6 W/m 11,1 km/h (2 Bft) 96,51 %
14.06.2016 06:00 13,9 C 13,4 C 12,8 C 97 % 15 lf 999,2 hPa 0,0 l/m 0,00 h 0,07 h 24 W/m 11,3 km/h (2 Bft) 94,26 %
14.06.2016 07:00 13,8 C 13,8 C 13,0 C 97 % 14 lf 999,3 hPa 0,0 l/m 0,00 h 0,17 h 51 W/m 13,3 km/h (3 Bft) 96,83 %
14.06.2016 08:00 14,2 C 14,5 C 14,0 C 97 % 1 lf 999,2 hPa 0,0 l/m 0,00 h 0,00 h 121 W/m 18,0 km/h (3 Bft) 96,66 %
14.06.2016 09:00 15,1 C 17,6 C 16,0 C 94 % 0 lf 999,0 hPa 0,0 l/m 0,37 h 0,00 h 267 W/m 15,9 km/h (3 Bft) 94,34 %
14.06.2016 10:00 17,4 C 23,1 C 21,5 C 85 % 0 lf 998,9 hPa 0,0 l/m 0,87 h 0,00 h 547 W/m 19,0 km/h (3 Bft) 97,08 %
14.06.2016 11:00 18,5 C 22,3 C 21,9 C 79 % 0 lf 998,7 hPa 0,0 l/m 0,67 h 0,00 h 507 W/m 19,0 km/h (3 Bft) 96,16 %
14.06.2016 12:00 20,0 C 26,1 C 25,5 C 73 % 0 lf 998,5 hPa 0,0 l/m 0,93 h 0,00 h 708 W/m 19,9 km/h (4 Bft) 94,66 %
14.06.2016 13:00 20,4 C 24,0 C 23,3 C 72 % 0 lf 998,4 hPa 0,0 l/m 0,60 h 0,00 h 525 W/m 22,7 km/h (4 Bft) 96,92 %
14.06.2016 14:00 20,2 C 25,2 C 24,8 C 74 % 0 lf 998,2 hPa 0,0 l/m 1,00 h 0,00 h 662 W/m 20,2 km/h (4 Bft) 96,46 %
14.06.2016 15:00 20,6 C 24,5 C 25,2 C 68 % 0 lf 997,9 hPa 0,0 l/m 1,00 h 0,00 h 611 W/m 23,6 km/h (4 Bft) 95,59 %
14.06.2016 16:00 21,5 C 25,8 C 28,4 C 66 % 0 lf 997,5 hPa 0,0 l/m 0,87 h 0,00 h 686 W/m 19,4 km/h (3 Bft) 96,05 %
14.06.2016 17:00 21,2 C 23,0 C 22,5 C 66 % 0 lf 997,2 hPa 0,0 l/m 0,63 h 0,00 h 434 W/m 18,0 km/h (3 Bft) 97,23 %
14.06.2016 18:00 20,4 C 20,9 C 19,4 C 68 % 0 lf 997,2 hPa 0,0 l/m 0,43 h 0,00 h 250 W/m 21,1 km/h (4 Bft) 95,48 %
14.06.2016 19:00 19,1 C 19,3 C 17,5 C 71 % 0 lf 997,2 hPa 0,0 l/m 1,00 h 0,00 h 283 W/m 18,9 km/h (3 Bft) 96,06 %
14.06.2016 20:00 18,0 C 17,7 C 16,2 C 76 % 0 lf 997,8 hPa 0,0 l/m 0,57 h 0,00 h 109 W/m 12,9 km/h (3 Bft) 95,44 %
14.06.2016 21:00 16,9 C 16,2 C 14,7 C 77 % 0 lf 998,2 hPa 0,0 l/m 0,00 h 0,00 h 16 W/m 13,5 km/h (3 Bft) 97,01 %
14.06.2016 22:00 15,6 C 15,0 C 13,9 C 80 % 0 lf 998,4 hPa 0,0 l/m 0,00 h 0,00 h 5 W/m 7,8 km/h (2 Bft) 95,18 %
14.06.2016 23:00 15,2 C 15,0 C 13,9 C 84 % 0 lf 998,6 hPa 0,0 l/m 0,00 h 0,00 h 5 W/m 8,7 km/h (2 Bft) 96,44 %
15.06.2016 00:00 14,9 C 14,5 C 13,4 C 87 % 0 lf 998,5 hPa 0,0 l/m 0,00 h 0,00 h 5 W/m 10,5 km/h (2 Bft) 92,31 %
15.06.2016 01:00 14,5 C 14,4 C 13,1 C 89 % 0 lf 998,2 hPa 0,0 l/m 0,00 h 0,00 h 5 W/m 9,8 km/h (2 Bft) 97,86 %
15.06.2016 02:00 14,3 C 14,4 C 13,2 C 90 % 0 lf 997,9 hPa 0,0 l/m 0,00 h 0,00 h 5 W/m 7,9 km/h (2 Bft) 95,45 %
15.06.2016 03:00 14,3 C 14,4 C 13,0 C 89 % 0 lf 997,9 hPa 0,0 l/m 0,00 h 0,00 h 5 W/m 6,7 km/h (2 Bft) 95,87 %
15.06.2016 04:00 14,1 C 13,9 C 12,6 C 90 % 0 lf 997,7 hPa 0,0 l/m 0,00 h 0,00 h 5 W/m 7,2 km/h (2 Bft) 96,29 %
15.06.2016 05:00 13,8 C 13,8 C 12,7 C 91 % 0 lf 997,6 hPa 0,0 l/m 0,33 h 0,17 h 16 W/m 6,7 km/h (2 Bft) 96,93 %
15.06.2016 06:00 13,8 C 13,9 C 12,7 C 93 % 0 lf 997,6 hPa 0,0 l/m 0,23 h 0,10 h 64 W/m 5,7 km/h (1 Bft) 94,45 %
15.06.2016 07:00 14,1 C 14,8 C 13,9 C 93 % 2 lf 997,9 hPa 0,2 l/m 0,20 h 0,37 h 131 W/m 11,3 km/h (2 Bft) 96,37 %
15.06.2016 08:00 14,7 C 14,5 C 13,9 C 92 % 12 lf 998,3 hPa 0,2 l/m 0,17 h 0,57 h 163 W/m 9,4 km/h (2 Bft) 97,15 %
15.06.2016 09:00 15,3 C 16,8 C 15,5 C 92 % 4 lf 998,5 hPa 0,0 l/m 0,37 h 0,00 h 298 W/m 9,4 km/h (2 Bft) 96,54 %
15.06.2016 10:00 16,8 C 19,4 C 17,4 C 83 % 0 lf 998,3 hPa 0,0 l/m 0,27 h 0,00 h 334 W/m 14,2 km/h (3 Bft) 94,73 %
15.06.2016 11:00 16,6 C 18,3 C 16,6 C 81 % 0 lf 998,4 hPa 0,0 l/m 0,03 h 0,00 h 212 W/m 10,4 km/h (2 Bft) 97,08 %
15.06.2016 12:00 17,7 C 21,5 C 19,9 C 81 % 2 lf 998,2 hPa 0,2 l/m 0,33 h 0,17 h 377 W/m 10,8 km/h (2 Bft) 96,58 %
15.06.2016 13:00 19,0 C 24,9 C 20,9 C 75 % 2 lf 998,3 hPa 0,0 l/m 0,67 h 0,07 h 633 W/m 16,6 km/h (3 Bft) 95,95 %
15.06.2016 14:00 19,7 C 26,4 C 25,5 C 71 % 0 lf 998,2 hPa 0,0 l/m 0,87 h 0,00 h 779 W/m 16,7 km/h (3 Bft) 96,37 %
15.06.2016 15:00 19,9 C 22,1 C 22,1 C 69 % 0 lf 998,5 hPa 0,0 l/m 0,33 h 0,17 h 403 W/m 12,6 km/h (3 Bft) 95,59 %
15.06.2016 16:00 18,7 C 17,5 C 17,5 C 73 % 6 lf 998,6 hPa 0,4 l/m 0,00 h 0,57 h 144 W/m 15,7 km/h (3 Bft) 95,46 %
15.06.2016 17:00 16,9 C 15,9 C 15,9 C 85 % 5 lf 999,0 hPa 0,0 l/m 0,33 h 0,57 h 235 W/m 6,9 km/h (2 Bft) 97,66 %
15.06.2016 18:00 16,9 C 16,6 C 15,5 C 83 % 0 lf 999,1 hPa 0,2 l/m 0,00 h 0,37 h 147 W/m 8,4 km/h (2 Bft) 93,66 %
15.06.2016 19:00 16,2 C 14,7 C 14,2 C 85 % 0 lf 999,5 hPa 0,0 l/m 0,00 h 0,50 h 88 W/m 8,3 km/h (2 Bft) 98,36 %
15.06.2016 20:00 15,4 C 14,9 C 13,7 C 88 % 0 lf 1000,0 hPa 0,0 l/m 0,00 h 0,37 h 26 W/m 9,5 km/h (2 Bft) 96,73 %
15.06.2016 21:00 14,7 C 14,2 C 12,9 C 89 % 0 lf 1000,4 hPa 0,0 l/m 0,33 h 0,03 h 21 W/m 7,6 km/h (2 Bft) 94,09 %
15.06.2016 22:00 14,3 C 13,7 C 12,7 C 90 % 0 lf 1001,0 hPa 0,0 l/m 0,00 h 0,00 h 5 W/m 6,2 km/h (2 Bft) 97,16 %
15.06.2016 23:00 13,7 C 12,9 C 11,8 C 92 % 0 lf 1001,6 hPa 0,0 l/m 0,00 h 0,00 h 5 W/m 6,7 km/h (2 Bft) 96,87 %
16.06.2016 00:00 13,0 C 12,0 C 10,8 C 93 % 2 lf 1001,7 hPa 0,0 l/m 0,00 h 0,00 h 5 W/m 4,9 km/h (1 Bft) 94,71 %
16.06.2016 01:00 12,2 C 11,6 C 10,5 C 94 % 6 lf 1001,7 hPa 0,0 l/m 0,00 h 0,00 h 5 W/m 3,6 km/h (1 Bft) 95,30 %
16.06.2016 02:00 11,6 C 10,6 C 9,7 C 95 % 15 lf 1001,6 hPa 0,0 l/m 0,00 h 0,00 h 5 W/m 1,1 km/h (1 Bft) 96,80 %
16.06.2016 03:00 10,9 C 10,1 C 9,4 C 95 % 15 lf 1001,5 hPa 0,0 l/m 0,00 h 0,00 h 5 W/m 2,7 km/h (1 Bft) 95,87 %
16.06.2016 04:00 10,7 C 10,2 C 9,3 C 96 % 15 lf 1001,5 hPa 0,0 l/m 0,00 h 0,00 h 5 W/m 6,8 km/h (2 Bft) 97,45 %
16.06.2016 05:00 10,3 C 9,7 C 8,9 C 96 % 15 lf 1001,6 hPa 0,0 l/m 0,37 h 0,00 h 18 W/m 7,5 km/h (2 Bft) 94,30 %
16.06.2016 06:00 10,2 C 10,5 C 9,3 C 97 % 15 lf 1002,2 hPa 0,0 l/m 1,00 h 0,00 h 113 W/m 6,9 km/h (2 Bft) 96,76 %
16.06.2016 07:00 11,1 C 12,4 C 10,6 C 98 % 15 lf 1002,2 hPa 0,0 l/m 1,00 h 0,00 h 270 W/m 8,1 km/h (2 Bft) 95,30 %
16.06.2016 08:00 12,9 C 19,3 C 13,0 C 98 % 1 lf 1002,3 hPa 0,0 l/m 1,00 h 0,00 h 403 W/m 6,4 km/h (2 Bft) 98,15 %
16.06.2016 09:00 15,7 C 22,7 C 15,6 C 89 % 0 lf 1002,1 hPa 0,0 l/m 0,97 h 0,00 h 391 W/m 6,3 km/h (2 Bft) 93,73 %
16.06.2016 10:00 17,4 C 21,9 C 20,3 C 80 % 0 lf 1002,4 hPa 0,0 l/m 0,93 h 0,00 h 477 W/m 11,3 km/h (2 Bft) 95,37 %
16.06.2016 11:00 18,7 C 22,5 C 21,9 C 73 % 0 lf 1002,4 hPa 0,0 l/m 1,00 h 0,00 h 500 W/m 8,4 km/h (2 Bft) 97,43 %
16.06.2016 12:00 19,4 C 24,1 C 22,4 C 71 % 0 lf 1002,4 hPa 0,0 l/m 1,00 h 0,00 h 525 W/m 7,1 km/h (2 Bft) 95,95 %
16.06.2016 13:00 20,1 C 23,4 C 22,4 C 65 % 0 lf 1002,2 hPa 0,0 l/m 0,77 h 0,00 h 455 W/m 7,5 km/h (2 Bft) 94,38 %
16.06.2016 14:00 20,5 C 24,4 C 22,9 C 64 % 0 lf 1002,0 hPa 0,0 l/m 0,40 h 0,00 h 457 W/m 9,7 km/h (2 Bft) 97,58 %
16.06.2016 15:00 19,3 C 17,5 C 16,9 C 70 % 5 lf 1002,0 hPa 0,4 l/m 0,00 h 0,70 h 118 W/m 13,7 km/h (3 Bft) 95,51 %
16.06.2016 16:00 16,1 C 15,5 C 15,6 C 87 % 9 lf 1002,1 hPa 0,4 l/m 0,10 h 0,67 h 261 W/m 12,2 km/h (2 Bft) 94,95 %
16.06.2016 17:00 16,2 C 15,0 C 15,1 C 87 % 6 lf 1001,6 hPa 0,4 l/m 0,03 h 0,90 h 213 W/m 11,5 km/h (2 Bft) 96,73 %
16.06.2016 18:00 16,0 C 15,9 C 15,1 C 89 % 0 lf 1001,3 hPa 0,0 l/m 0,00 h 0,03 h 173 W/m 12,0 km/h (2 Bft) 97,01 %
16.06.2016 19:00 16,2 C 16,4 C 14,7 C 90 % 0 lf 1001,2 hPa 0,0 l/m 0,00 h 0,00 h 74 W/m 8,2 km/h (2 Bft) 95,41 %
16.06.2016 20:00 15,9 C 15,4 C 14,3 C 88 % 3 lf 1001,2 hPa 0,0 l/m 0,00 h 0,27 h 30 W/m 2,3 km/h (1 Bft) 96,15 %
16.06.2016 21:00 15,6 C 14,3 C 13,4 C 89 % 15 lf 1001,2 hPa 0,2 l/m 0,00 h 0,33 h 14 W/m 0,4 km/h (0 Bft) 95,94 %
16.06.2016 22:00 15,1 C 13,5 C 12,8 C 91 % 15 lf 1001,3 hPa 0,0 l/m 0,00 h 0,00 h 5 W/m 3,0 km/h (1 Bft) 96,98 %
16.06.2016 23:00 14,4 C 13,1 C 12,2 C 92 % 15 lf 1001,1 hPa 0,0 l/m 0,00 h 0,00 h 5 W/m 3,2 km/h (1 Bft) 96,44 %
17.06.2016 00:00 13,7 C 12,4 C 11,6 C 93 % 15 lf 1001,2 hPa 0,0 l/m 0,00 h 0,00 h 5 W/m 1,1 km/h (1 Bft) 94,40 %
17.06.2016 01:00 13,0 C 11,8 C 11,2 C 94 % 15 lf 1001,3 hPa 0,0 l/m 0,00 h 0,00 h 5 W/m 1,5 km/h (1 Bft) 95,89 %
17.06.2016 02:00 12,6 C 11,7 C 11,1 C 94 % 15 lf 1001,0 hPa 0,0 l/m 0,00 h 0,00 h 5 W/m 2,3 km/h (1 Bft) 97,63 %
17.06.2016 03:00 12,2 C 11,5 C 10,7 C 95 % 15 lf 1001,1 hPa 0,0 l/m 0,00 h 0,00 h 5 W/m 1,4 km/h (1 Bft) 95,49 %
17.06.2016 04:00 12,6 C 12,6 C 11,7 C 96 % 15 lf 1001,4 hPa 0,8 l/m 0,00 h 0,20 h 5 W/m 8,2 km/h (2 Bft) 95,51 %
17.06.2016 05:00 13,1 C 12,9 C 12,2 C 97 % 15 lf 1001,6 hPa 0,0 l/m 0,00 h 0,03 h 8 W/m 8,2 km/h (2 Bft) 96,87 %
17.06.2016 06:00 13,1 C 12,9 C 12,3 C 98 % 15 lf 1002,0 hPa 0,0 l/m 0,00 h 0,00 h 37 W/m 8,3 km/h (2 Bft) 95,42 %
17.06.2016 07:00 13,6 C 14,1 C 13,3 C 98 % 15 lf 1002,4 hPa 0,0 l/m 0,37 h 0,00 h 132 W/m 10,7 km/h (2 Bft) 96,92 %
17.06.2016 08:00 14,0 C 14,6 C 13,7 C 98 % 9 lf 1002,9 hPa 0,0 l/m 0,03 h 0,23 h 111 W/m 16,0 km/h (3 Bft) 94,89 %
17.06.2016 09:00 14,4 C 16,2 C 14,7 C 97 % 0 lf 1003,7 hPa 0,0 l/m 0,00 h 0,00 h 162 W/m 15,7 km/h (3 Bft) 96,13 %
17.06.2016 10:00 15,1 C 16,8 C 15,3 C 94 % 0 lf 1004,4 hPa 0,0 l/m 0,00 h 0,00 h 162 W/m 13,2 km/h (3 Bft) 97,74 %
17.06.2016 11:00 15,9 C 19,0 C 17,6 C 90 % 0 lf 1004,9 hPa 0,0 l/m 0,30 h 0,00 h 303 W/m 14,7 km/h (3 Bft) 96,02 %
17.06.2016 12:00 17,1 C 19,5 C 17,7 C 83 % 0 lf 1005,5 hPa 0,2 l/m 0,00 h 0,00 h 224 W/m 15,9 km/h (3 Bft) 94,47 %
17.06.2016 13:00 18,9 C 26,6 C 22,6 C 78 % 0 lf 1006,1 hPa 0,0 l/m 0,83 h 0,00 h 702 W/m 13,8 km/h (3 Bft) 98,49 %
17.06.2016 14:00 19,8 C 23,2 C 22,3 C 72 % 0 lf 1006,6 hPa 0,0 l/m 0,33 h 0,00 h 390 W/m 11,3 km/h (2 Bft) 95,71 %
17.06.2016 15:00 20,2 C 23,6 C 24,3 C 71 % 0 lf 1007,0 hPa 0,0 l/m 0,40 h 0,00 h 504 W/m 14,3 km/h (3 Bft) 95,66 %
17.06.2016 16:00 20,1 C 22,8 C 23,2 C 72 % 0 lf 1007,4 hPa 0,0 l/m 0,40 h 0,00 h 387 W/m 18,1 km/h (3 Bft) 96,89 %
17.06.2016 17:00 19,2 C 20,3 C 19,6 C 74 % 0 lf 1007,8 hPa 0,0 l/m 0,40 h 0,17 h 259 W/m 19,1 km/h (3 Bft) 96,09 %
17.06.2016 18:00 18,8 C 20,0 C 18,6 C 75 % 0 lf 1008,2 hPa 0,0 l/m 1,00 h 0,17 h 435 W/m 14,2 km/h (3 Bft) 95,92 %
17.06.2016 19:00 17,7 C 17,6 C 16,3 C 79 % 0 lf 1009,0 hPa 0,0 l/m 0,10 h 0,00 h 103 W/m 9,0 km/h (2 Bft) 94,38 %
17.06.2016 20:00 16,2 C 14,3 C 13,4 C 83 % 12 lf 1009,4 hPa 1,0 l/m 0,07 h 0,77 h 31 W/m 8,1 km/h (2 Bft) 98,53 %
17.06.2016 21:00 14,6 C 13,2 C 12,5 C 89 % 15 lf 1009,8 hPa 0,2 l/m 0,60 h 0,17 h 33 W/m 5,4 km/h (1 Bft) 96,06 %
17.06.2016 22:00 13,8 C 12,8 C 11,6 C 92 % 15 lf 1010,4 hPa 0,0 l/m 0,00 h 0,00 h 5 W/m 4,7 km/h (1 Bft) 93,77 %
17.06.2016 23:00 13,3 C 12,8 C 12,0 C 95 % 15 lf 1010,8 hPa 0,0 l/m 0,00 h 0,00 h 5 W/m 7,3 km/h (2 Bft) 97,42 %
18.06.2016 00:00 13,4 C 13,2 C 12,2 C 96 % 15 lf 1011,0 hPa 0,0 l/m 0,00 h 0,00 h 5 W/m 7,5 km/h (2 Bft) 96,96 %
18.06.2016 01:00 13,6 C 13,2 C 12,0 C 97 % 13 lf 1011,2 hPa 0,0 l/m 0,00 h 0,00 h 5 W/m 9,4 km/h (2 Bft) 94,24 %
18.06.2016 02:00 13,3 C 12,8 C 11,6 C 97 % 14 lf 1011,5 hPa 0,0 l/m 0,00 h 0,00 h 5 W/m 10,0 km/h (2 Bft) 96,47 %
18.06.2016 03:00 13,3 C 13,3 C 12,1 C 97 % 9 lf 1011,6 hPa 0,0 l/m 0,00 h 0,00 h 5 W/m 10,1 km/h (2 Bft) 96,14 %
18.06.2016 04:00 13,4 C 13,3 C 12,2 C 97 % 2 lf 1011,8 hPa 0,0 l/m 0,00 h 0,00 h 5 W/m 8,0 km/h (2 Bft) 94,87 %
18.06.2016 05:00 13,6 C 13,7 C 12,3 C 97 % 1 lf 1012,2 hPa 0,0 l/m 0,00 h 0,00 h 8 W/m 10,8 km/h (2 Bft) 97,18 %
18.06.2016 06:00 13,7 C 13,9 C 12,8 C 98 % 1 lf 1012,5 hPa 0,0 l/m 0,00 h 0,07 h 25 W/m 10,7 km/h (2 Bft) 94,54 %
18.06.2016 07:00 14,1 C 14,4 C 13,3 C 98 % 7 lf 1013,0 hPa 0,2 l/m 0,00 h 0,57 h 69 W/m 11,7 km/h (2 Bft) 96,94 %
18.06.2016 08:00 14,5 C 15,1 C 14,1 C 98 % 5 lf 1013,3 hPa 0,0 l/m 0,03 h 0,07 h 140 W/m 14,2 km/h (3 Bft) 97,21 %
18.06.2016 09:00 14,7 C 14,8 C 13,8 C 97 % 9 lf 1013,9 hPa 2,6 l/m 0,00 h 0,57 h 87 W/m 15,3 km/h (3 Bft) 95,59 %
18.06.2016 10:00 15,6 C 17,7 C 17,3 C 97 % 10 lf 1014,3 hPa 0,0 l/m 0,43 h 0,03 h 379 W/m 12,0 km/h (2 Bft) 94,53 %
18.06.2016 11:00 16,6 C 19,7 C 18,6 C 91 % 0 lf 1014,7 hPa 0,0 l/m 0,60 h 0,00 h 416 W/m 14,1 km/h (3 Bft) 98,16 %
18.06.2016 12:00 18,3 C 24,9 C 21,9 C 82 % 0 lf 1014,8 hPa 0,0 l/m 0,77 h 0,00 h 801 W/m 17,3 km/h (3 Bft) 95,26 %
18.06.2016 13:00 19,3 C 20,7 C 18,7 C 77 % 9 lf 1014,8 hPa 0,4 l/m 0,30 h 0,37 h 338 W/m 11,6 km/h (2 Bft) 95,73 %
18.06.2016 14:00 19,2 C 23,2 C 22,0 C 82 % 3 lf 1015,0 hPa 0,6 l/m 0,60 h 0,17 h 612 W/m 18,8 km/h (3 Bft) 96,97 %
18.06.2016 15:00 15,2 C 13,6 C 13,3 C 88 % 15 lf 1016,0 hPa 1,8 l/m 0,00 h 0,87 h 103 W/m 15,6 km/h (3 Bft) 96,13 %
18.06.2016 16:00 14,9 C 15,1 C 14,8 C 94 % 14 lf 1016,1 hPa 0,0 l/m 0,03 h 0,43 h 204 W/m 11,0 km/h (2 Bft) 94,16 %
18.06.2016 17:00 15,7 C 15,9 C 15,9 C 94 % 10 lf 1016,2 hPa 0,4 l/m 0,23 h 0,37 h 206 W/m 14,2 km/h (3 Bft) 97,58 %
18.06.2016 18:00 15,4 C 15,2 C 14,5 C 94 % 14 lf 1016,3 hPa 0,2 l/m 0,30 h 0,33 h 180 W/m 13,2 km/h (3 Bft) 94,93 %
18.06.2016 19:00 15,2 C 14,7 C 14,0 C 93 % 8 lf 1016,7 hPa 0,2 l/m 0,47 h 0,03 h 145 W/m 18,2 km/h (3 Bft) 98,08 %
18.06.2016 20:00 15,0 C 14,7 C 13,5 C 92 % 0 lf 1017,6 hPa 0,0 l/m 0,37 h 0,00 h 79 W/m 18,3 km/h (3 Bft) 94,96 %
18.06.2016 21:00 14,4 C 13,6 C 12,4 C 91 % 0 lf 1018,2 hPa 0,0 l/m 0,00 h 0,00 h 15 W/m 15,1 km/h (3 Bft) 96,52 %
18.06.2016 22:00 13,8 C 13,1 C 12,2 C 91 % 0 lf 1019,0 hPa 0,0 l/m 0,00 h 0,07 h 5 W/m 11,1 km/h (2 Bft) 97,10 %
18.06.2016 23:00 13,5 C 13,3 C 12,2 C 92 % 0 lf 1019,4 hPa 0,0 l/m 0,00 h 0,00 h 5 W/m 9,9 km/h (2 Bft) 97,23 %
19.06.2016 00:00 13,3 C 13,3 C 11,9 C 93 % 0 lf 1019,7 hPa 0,0 l/m 0,00 h 0,00 h 5 W/m 12,7 km/h (3 Bft) 94,19 %
19.06.2016 01:00 13,2 C 13,0 C 11,8 C 94 % 2 lf 1020,0 hPa 0,0 l/m 0,00 h 0,00 h 5 W/m 12,2 km/h (2 Bft) 97,59 %
19.06.2016 02:00 13,0 C 12,8 C 11,5 C 95 % 11 lf 1020,4 hPa 0,0 l/m 0,00 h 0,10 h 5 W/m 15,8 km/h (3 Bft) 96,30 %
19.06.2016 03:00 12,6 C 12,8 C 11,2 C 94 % 4 lf 1020,6 hPa 0,0 l/m 0,00 h 0,00 h 5 W/m 11,5 km/h (2 Bft) 95,95 %
19.06.2016 04:00 12,4 C 12,2 C 11,1 C 94 % 0 lf 1020,9 hPa 0,0 l/m 0,00 h 0,00 h 5 W/m 11,2 km/h (2 Bft) 95,28 %
19.06.2016 05:00 12,3 C 12,2 C 11,1 C 93 % 0 lf 1021,3 hPa 0,0 l/m 0,00 h 0,00 h 10 W/m 11,0 km/h (2 Bft) 95,95 %
19.06.2016 06:00 12,2 C 12,4 C 11,5 C 94 % 0 lf 1021,9 hPa 0,0 l/m 0,00 h 0,00 h 37 W/m 10,9 km/h (2 Bft) 96,94 %
19.06.2016 07:00 12,5 C 13,5 C 12,5 C 94 % 0 lf 1022,4 hPa 0,0 l/m 0,00 h 0,00 h 96 W/m 11,2 km/h (2 Bft) 95,64 %
19.06.2016 08:00 13,2 C 15,3 C 14,1 C 92 % 0 lf 1023,0 hPa 0,0 l/m 0,07 h 0,00 h 186 W/m 12,8 km/h (3 Bft) 96,32 %
19.06.2016 09:00 14,2 C 17,7 C 16,0 C 87 % 0 lf 1023,4 hPa 0,0 l/m 0,73 h 0,00 h 323 W/m 14,4 km/h (3 Bft) 95,79 %
19.06.2016 10:00 14,8 C 17,4 C 16,2 C 82 % 0 lf 1023,8 hPa 0,0 l/m 0,00 h 0,00 h 273 W/m 14,9 km/h (3 Bft) 97,80 %
19.06.2016 11:00 15,3 C 19,3 C 17,9 C 79 % 0 lf 1024,0 hPa 0,0 l/m 0,47 h 0,00 h 417 W/m 13,5 km/h (3 Bft) 95,68 %
19.06.2016 12:00 16,9 C 23,2 C 20,3 C 73 % 0 lf 1024,0 hPa 0,0 l/m 0,70 h 0,00 h 614 W/m 12,6 km/h (3 Bft) 95,74 %
19.06.2016 13:00 17,5 C 22,3 C 19,6 C 68 % 0 lf 1024,1 hPa 0,0 l/m 0,43 h 0,00 h 463 W/m 11,8 km/h (2 Bft) 98,08 %
19.06.2016 14:00 18,5 C 24,8 C 23,9 C 66 % 0 lf 1024,1 hPa 0,0 l/m 0,67 h 0,00 h 636 W/m 14,4 km/h (3 Bft) 93,03 %
19.06.2016 15:00 19,1 C 23,8 C 23,1 C 62 % 0 lf 1024,0 hPa 0,0 l/m 0,40 h 0,00 h 455 W/m 12,6 km/h (3 Bft) 97,79 %
19.06.2016 16:00 19,8 C 26,0 C 27,7 C 59 % 0 lf 1023,7 hPa 0,0 l/m 0,87 h 0,00 h 716 W/m 11,6 km/h (2 Bft) 97,43 %
19.06.2016 17:00 20,0 C 23,2 C 22,5 C 57 % 0 lf 1023,5 hPa 0,0 l/m 0,50 h 0,00 h 430 W/m 10,1 km/h (2 Bft) 94,52 %
19.06.2016 18:00 19,3 C 20,2 C 18,1 C 59 % 0 lf 1023,2 hPa 0,0 l/m 0,70 h 0,00 h 371 W/m 12,3 km/h (3 Bft) 95,80 %
19.06.2016 19:00 18,4 C 18,4 C 16,4 C 61 % 0 lf 1023,2 hPa 0,0 l/m 0,53 h 0,00 h 192 W/m 11,1 km/h (2 Bft) 97,44 %
19.06.2016 20:00 17,6 C 17,2 C 15,6 C 67 % 0 lf 1023,2 hPa 0,0 l/m 0,60 h 0,00 h 99 W/m 3,6 km/h (1 Bft) 95,06 %
19.06.2016 21:00 17,0 C 15,3 C 13,1 C 72 % 0 lf 1023,2 hPa 0,0 l/m 0,07 h 0,00 h 21 W/m 0,7 km/h (0 Bft) 95,78 %
19.06.2016 22:00 15,1 C 12,8 C 11,1 C 80 % 0 lf 1023,5 hPa 0,0 l/m 0,00 h 0,00 h 5 W/m 0,6 km/h (0 Bft) 95,34 %
19.06.2016 23:00 13,3 C 11,6 C 10,2 C 85 % 1 lf 1023,2 hPa 0,0 l/m 0,00 h 0,00 h 5 W/m 1,6 km/h (1 Bft) 96,73 %
Min-Datum _ 16.06.16 16.06.16 16.06.16 19.06.16 13.06.16 14.06.16 - - - - 16.06.16 15.06.16
_ Min-Zeit 05:36 05:04 04:52 16:42 10:54 17:48 - - - - 00:56 00:02
Minimum _ 10,1 C 9,4 C 8,9 C 56 % 0 lf 997,0 hPa - - - - 0,0 km/h (0 Bft) 10,53 %
Max-Datum _ 14.06.16 13.06.16 14.06.16 13.06.16 13.06.16 19.06.16 18.06.16 13.06.16 13.06.16 19.06.16 18.06.16 13.06.16
_ Max-Zeit 16:50 13:18 16:26 02:02 00:00 13:34 09:32 09:50 01:10 14:38 14:50 00:00
Maximum _ 21,9 C 31,1 C 31,1 C 98 % 15 lf 1024,2 hPa 2,6 l/m 0,03 h 0,03 h 1288 W/m 52,3 km/h
SW (7 Bft)
100,00 %
Durchschnitt _ 15,8 C 16,7 C 15,6 C 87 % 5 lf 1006,2 hPa #14,8 l/m #40:08 h #18:54 h 186 W/m 11,1 km/h (2 Bft) 96,08 %
© 2016 W. Hausmann